Terminal Aerodrome Forecast
Issued by NWS

Home | Current Version | Previous Version | Text Only | Print | Product List | Glossary On
Versions: 1 2 3 4 5 6 7 8 9 10 11 12 13 14 15 16 17 18
000
FTUS41 KBOX 212241 AAA
TAFHYA
TAF AMD
KHYA 212241Z 2123/2218 21005KT 1 1/2SM BR BKN002
     FM220100 25006KT 1/2SM FG OVC002
     FM221200 VRB03KT 5SM BR BKN150=

USA.gov is the U.S. government's official web portal to all federal, state and local government web resources and services.